Airfield :
LOGIN :

Register | Disclaimer

   EN    FR    IT 

 










Legend :    VFR   Marginal VFR   IFR   Intensive IFR   Very Intensive IFR
Visi :
Ceiling :
>= 8 km
>= 3000ft
5 to 8 km
1000 to 3000 ft
1500m to 5 km
500 to 1000 ft
800 to 1500m
200 to 500 ft
< 800m
< 200 ft
Symbols :   Thunderstorms  Fog  Heavy snow  Heavy precipitations  Wind > 20 kt
SIGMETs :     Misc.  Thunderstorms  Icing  Turbulence  Mountain Waves  Volcanic Ashes






- Airport Elevation : 135 ft
- IATA code : BOJ


LBBG - Burgas

CURRENT METAR :
  • 171230Z 09008KT 9999 FEW020 BKN023 17/12 Q1021 NOSIG

EXPIRED METARs :
  • 171200Z 08012KT 9999 SCT021 BKN026 17/12 Q1021 NOSIG
  • 171130Z 08012KT 9999 FEW020 BKN025 18/12 Q1021 NOSIG
  • 171100Z 08013KT 9999 FEW017 BKN023 18/13 Q1021 NOSIG
  • 171030Z 09011KT 9999 BKN020 17/13 Q1022 NOSIG
  • 171000Z 08009KT 050V110 9999 FEW019 BKN024 17/12 Q1022 NOSIG
  • 170930Z 11008KT 9999 FEW017 BKN023 18/12 Q1022 NOSIG

TAF TAF LBBG
Valid from the 17 at 12:00 until the 18 at 12:00 UTC


171100Z 1712/1812 08014KT 9999 SCT015 BKN020
BECMG 1718/1720 VRB04KT 5000 BR SCT015
TEMPO 1800/1806 1500 BR BKN007 OVC010
BECMG 1806/1808 09010KT 9999 SCT020 BKN040



MET'MAP, your aeronautical weather chart ! - Copyright ORBIFLY December 2007 - Disclaimer

ORBIFLY MET'MAP TEAM :

Programming & Development : Alexandra Zaïnal
Concept & Development : Baudouin d'Aumeries
Co-Development & Prog : Marc-Olivier Méhu
Technical & hardware support : Manuel Goepfert

Contact : metmap@orbifly.com




SOURCES & CREDITS :

   NOAA